Time;durP1;ratioP1;P1;durP2;ratioP2;P2;SDS_P1;SDS_P2;PMS_P1;PMS_P2;Temp;Humidity;BMP_temperature;BMP_pressure;BME280_temperature;BME280_humidity;BME280_pressure;Samples;Min_cycle;Max_cycle;Signal;HPM_P1;HPM_P2
2023/05/03 00:01:51;;;;;;;;;;;9.10;99.90;;;;;;4955881;29;19917;-74
2023/05/03 00:04:17;;;;;;;;;;;9.10;99.90;;;;;;4965855;28;20426;-76
2023/05/03 00:06:43;;;;;;;;;;;9.10;99.90;;;;;;4962652;28;19909;-76
2023/05/03 00:09:09;;;;;;;;;;;9.00;99.90;;;;;;4970208;28;20275;-76
2023/05/03 00:11:38;;;;;;;;;;;9.00;99.90;;;;;;4955640;29;19918;-76
2023/05/03 00:14:03;;;;;;;;;;;9.00;99.90;;;;;;4956745;29;19910;-76
2023/05/03 00:16:29;;;;;;;;;;;9.00;99.90;;;;;;4939193;29;19906;-75
2023/05/03 00:18:54;;;;;;;;;;;9.00;99.90;;;;;;4956551;29;20315;-76
2023/05/03 00:21:20;;;;;;;;;;;9.10;99.90;;;;;;4957109;29;19928;-75
2023/05/03 00:23:46;;;;;;;;;;;9.30;99.90;;;;;;4955714;29;19907;-76
2023/05/03 00:26:11;;;;;;;;;;;9.20;99.90;;;;;;4955691;29;20374;-76
2023/05/03 00:28:36;;;;;;;;;;;9.10;99.90;;;;;;4955718;29;20364;-75
2023/05/03 00:31:05;;;;;;;;;;;9.10;99.90;;;;;;4956210;29;19906;-76
2023/05/03 00:33:31;;;;;;;;;;;9.00;99.90;;;;;;4953767;29;19918;-77
2023/05/03 00:35:56;;;;;;;;;;;9.10;99.90;;;;;;4955958;29;19914;-76
2023/05/03 00:38:22;;;;;;;;;;;9.20;99.90;;;;;;4955756;29;20002;-75
2023/05/03 00:40:52;;;;;;;;;;;9.00;99.90;;;;;;4954714;29;20509;-75
2023/05/03 00:43:18;;;;;;;;;;;8.90;99.90;;;;;;4955480;29;20390;-76
2023/05/03 00:45:45;;;;;;;;;;;8.90;99.90;;;;;;4954685;29;20005;-75
2023/05/03 00:48:11;;;;;;;;;;;;;;;;;;4938010;29;20028;-77
2023/05/03 00:50:37;;;;;;;;;;;;;;;;;;4954834;29;19977;-75
2023/05/03 00:53:02;;;;;;;;;;;;;;;;;;4955352;29;19921;-74
2023/05/03 00:55:30;;;;;;;;;;;;;;;;;;4955210;29;19914;-76
2023/05/03 00:57:56;;;;;;;;;;;;;;;;;;4954333;29;19985;-76
2023/05/03 01:00:22;;;;;;;;;;;;;;;;;;4955572;29;19910;-75
2023/05/03 01:02:48;;;;;;;;;;;;;;;;;;4954105;28;19995;-76
2023/05/03 01:05:14;;;;;;;;;;;;;;;;;;4953385;28;19965;-75
2023/05/03 01:07:40;;;;;;;;;;;;;;;;;;4953132;29;20351;-76
2023/05/03 01:10:06;;;;;;;;;;;;;;;;;;4954617;29;19914;-75
2023/05/03 01:12:46;;;;;;;;;;;8.60;99.90;;;;;;4952922;29;20442;-77
2023/05/03 01:15:18;;;;;;;;;;;8.50;99.90;;;;;;4954408;29;20372;-76
2023/05/03 01:17:53;;;;;;;;;;;8.40;99.90;;;;;;4950004;29;19918;-75
2023/05/03 01:20:23;;;;;;;;;;;8.40;99.90;;;;;;4947482;29;20386;-75
2023/05/03 01:22:57;;;;;;;;;;;8.30;99.90;;;;;;4953002;29;19913;-74
2023/05/03 01:25:23;;;;;;;;;;;8.20;99.90;;;;;;4952720;29;19910;-75
2023/05/03 01:27:49;;;;;;;;;;;8.20;99.90;;;;;;4953239;29;20147;-75
2023/05/03 01:30:15;;;;;;;;;;;8.10;99.90;;;;;;4954121;29;20419;-75
2023/05/03 01:32:40;;;;;;;;;;;8.10;99.90;;;;;;4952444;29;19914;-75
2023/05/03 01:35:06;;;;;;;;;;;8.10;99.90;;;;;;4953859;29;19918;-75
2023/05/03 01:37:31;;;;;;;;;;;8.10;99.90;;;;;;4946788;29;19917;-74
2023/05/03 01:39:59;;;;;;;;;;;8.00;99.90;;;;;;4953505;29;19917;-76
2023/05/03 01:42:25;;;;;;;;;;;8.10;99.90;;;;;;4935976;29;19911;-76
2023/05/03 01:44:52;;;;;;;;;;;8.00;99.90;;;;;;4953235;29;20641;-75
2023/05/03 01:47:18;;;;;;;;;;;8.00;99.90;;;;;;4953288;29;19931;-76
2023/05/03 01:49:43;;;;;;;;;;;7.90;99.90;;;;;;4953357;29;19910;-76
2023/05/03 01:52:09;;;;;;;;;;;7.90;99.90;;;;;;4953818;29;20102;-74
2023/05/03 01:54:34;;;;;;;;;;;7.90;99.90;;;;;;4952975;29;20009;-75
2023/05/03 01:57:00;;;;;;;;;;;7.90;99.90;;;;;;4949986;29;19914;-75
2023/05/03 01:59:26;;;;;;;;;;;7.90;99.90;;;;;;4954580;28;19921;-75
2023/05/03 02:01:51;;;;;;;;;;;7.80;99.90;;;;;;4952939;29;20656;-76
2023/05/03 02:04:17;;;;;;;;;;;7.80;99.90;;;;;;4915870;28;1130511;-75
2023/05/03 02:06:42;;;;;;;;;;;7.80;99.90;;;;;;4943585;29;19910;-76
2023/05/03 02:09:08;;;;;;;;;;;7.70;99.90;;;;;;4961633;28;20287;-76
2023/05/03 02:11:33;;;;;;;;;;;7.80;99.90;;;;;;4954247;29;19910;-76
2023/05/03 02:13:59;;;;;;;;;;;7.70;99.90;;;;;;4954646;28;19918;-76
2023/05/03 02:16:25;;;;;;;;;;;7.70;99.90;;;;;;4954038;29;19993;-75
2023/05/03 02:18:52;;;;;;;;;;;;;;;;;;4953707;29;20763;-75
2023/05/03 02:21:18;;;;;;;;;;;;;;;;;;4954725;29;20430;-75
2023/05/03 02:23:44;;;;;;;;;;;;;;;;;;4953746;29;19950;-76
2023/05/03 02:26:10;;;;;;;;;;;;;;;;;;4955269;29;19910;-77
2023/05/03 02:28:36;;;;;;;;;;;;;;;;;;4953649;29;19989;-75
2023/05/03 02:31:04;;;;;;;;;;;;;;;;;;4954478;29;19907;-75
2023/05/03 02:33:31;;;;;;;;;;;;;;;;;;4953434;29;20386;-74
2023/05/03 02:35:56;;;;;;;;;;;;;;;;;;4954425;29;20038;-75
2023/05/03 02:38:22;;;;;;;;;;;;;;;;;;4953529;29;20000;-74
2023/05/03 02:40:48;;;;;;;;;;;;;;;;;;4954015;29;20390;-74
2023/05/03 02:43:14;;;;;;;;;;;;;;;;;;4953709;29;19917;-75
2023/05/03 02:45:40;;;;;;;;;;;;;;;;;;4952951;29;20352;-74
2023/05/03 02:48:06;;;;;;;;;;;;;;;;;;4954698;29;19949;-75
2023/05/03 02:50:32;;;;;;;;;;;;;;;;;;4954696;29;19910;-75
2023/05/03 02:52:58;;;;;;;;;;;;;;;;;;4953142;29;19918;-75
2023/05/03 02:55:24;;;;;;;;;;;;;;;;;;4953347;29;19921;-75
2023/05/03 02:57:50;;;;;;;;;;;;;;;;;;4952636;29;20018;-76
2023/05/03 03:00:16;;;;;;;;;;;;;;;;;;4953184;29;20378;-76
2023/05/03 03:02:43;;;;;;;;;;;;;;;;;;4952343;29;19989;-76
2023/05/03 03:05:08;;;;;;;;;;;7.40;99.90;;;;;;4952690;29;19919;-77
2023/05/03 03:07:36;;;;;;;;;;;7.30;99.90;;;;;;4951947;29;19911;-76
2023/05/03 03:10:01;;;;;;;;;;;7.20;99.90;;;;;;4953574;29;19910;-76
2023/05/03 03:12:28;;;;;;;;;;;7.20;99.90;;;;;;4952602;29;19978;-75
2023/05/03 03:14:53;;;;;;;;;;;7.10;99.90;;;;;;4951929;29;19914;-76
2023/05/03 03:17:19;;;;;;;;;;;7.00;99.90;;;;;;4952571;29;19957;-76
2023/05/03 03:19:45;;;;;;;;;;;7.30;99.90;;;;;;4953434;29;20328;-76
2023/05/03 03:22:11;;;;;;;;;;;7.00;99.90;;;;;;4953182;29;19911;-75
2023/05/03 03:24:36;;;;;;;;;;;7.10;99.90;;;;;;4952591;29;19953;-76
2023/05/03 03:27:02;;;;;;;;;;;7.30;99.90;;;;;;4951992;29;20342;-76
2023/05/03 03:29:29;;;;;;;;;;;6.90;99.90;;;;;;4952047;29;19917;-75
2023/05/03 03:31:54;;;;;;;;;;;6.90;99.90;;;;;;4951877;29;19934;-77
2023/05/03 03:34:20;;;;;;;;;;;6.80;99.90;;;;;;4955937;29;20349;-76
2023/05/03 03:36:45;;;;;;;;;;;6.80;99.90;;;;;;4973276;29;19921;-76
2023/05/03 03:39:11;;;;;;;;;;;7.20;99.90;;;;;;4975474;29;20019;-75
2023/05/03 03:41:36;;;;;;;;;;;6.80;99.90;;;;;;4959065;29;19914;-76
2023/05/03 03:44:02;;;;;;;;;;;6.70;99.90;;;;;;4949918;29;19914;-76
2023/05/03 03:46:27;;;;;;;;;;;6.80;99.90;;;;;;4952962;29;20343;-75
2023/05/03 03:48:53;;;;;;;;;;;6.70;99.90;;;;;;4952190;29;19914;-75
2023/05/03 03:51:19;;;;;;;;;;;;;;;;;;4954446;29;19934;-77
2023/05/03 03:53:45;;;;;;;;;;;;;;;;;;4952721;28;19921;-76
2023/05/03 03:56:10;;;;;;;;;;;;;;;;;;4953004;29;20323;-76
2023/05/03 03:58:36;;;;;;;;;;;;;;;;;;4951481;29;20009;-77
2023/05/03 04:01:02;;;;;;;;;;;;;;;;;;4953059;29;20069;-76
2023/05/03 04:03:28;;;;;;;;;;;;;;;;;;4956511;28;19957;-76
2023/05/03 04:05:54;;;;;;;;;;;;;;;;;;4952815;29;19907;-75
2023/05/03 04:08:20;;;;;;;;;;;;;;;;;;4957416;28;20374;-75
2023/05/03 04:10:46;;;;;;;;;;;;;;;;;;4952744;29;19906;-78
2023/05/03 04:13:12;;;;;;;;;;;;;;;;;;4952718;29;20347;-75
2023/05/03 04:15:38;;;;;;;;;;;;;;;;;;4952752;29;19918;-76
2023/05/03 04:18:04;;;;;;;;;;;;;;;;;;4952864;29;19907;-75
2023/05/03 04:20:30;;;;;;;;;;;;;;;;;;4955905;28;20215;-78
2023/05/03 04:22:56;;;;;;;;;;;;;;;;;;4946593;29;19993;-74
2023/05/03 04:25:22;;;;;;;;;;;;;;;;;;4948405;29;19966;-73
2023/05/03 04:27:49;;;;;;;;;;;;;;;;;;4947298;29;20475;-75
2023/05/03 04:30:16;;;;;;;;;;;;;;;;;;4946171;29;19917;-73
2023/05/03 04:32:42;;;;;;;;;;;;;;;;;;4945302;29;19921;-73
2023/05/03 04:35:11;;;;;;;;;;;;;;;;;;4948563;29;19914;-74
2023/05/03 04:37:37;;;;;;;;;;;;;;;;;;4951347;28;19915;-74
2023/05/03 04:40:08;;;;;;;;;;;;;;;;;;4952215;29;19910;-74
2023/05/03 04:42:34;;;;;;;;;;;;;;;;;;4951025;29;19916;-75
2023/05/03 04:45:02;;;;;;;;;;;;;;;;;;4951606;29;19922;-74
2023/05/03 04:47:28;;;;;;;;;;;;;;;;;;4953350;29;19990;-77
2023/05/03 04:49:54;;;;;;;;;;;;;;;;;;4952435;29;20414;-73
2023/05/03 04:52:20;;;;;;;;;;;;;;;;;;4952465;29;19914;-74
2023/05/03 04:54:46;;;;;;;;;;;;;;;;;;4954113;29;19937;-75
2023/05/03 04:57:12;;;;;;;;;;;;;;;;;;4954828;29;20364;-74
2023/05/03 04:59:38;;;;;;;;;;;;;;;;;;4954706;29;19911;-73
2023/05/03 05:02:04;;;;;;;;;;;;;;;;;;4951648;29;19911;-73
2023/05/03 05:04:30;;;;;;;;;;;;;;;;;;4954116;29;19918;-76
2023/05/03 05:06:56;;;;;;;;;;;;;;;;;;4954023;29;19965;-73
2023/05/03 05:09:22;;;;;;;;;;;;;;;;;;4950175;29;20847;-73
2023/05/03 05:11:48;;;;;;;;;;;;;;;;;;4947966;29;20628;-74
2023/05/03 05:14:13;;;;;;;;;;;;;;;;;;4952504;29;19926;-75
2023/05/03 05:16:39;;;;;;;;;;;;;;;;;;4953733;29;20023;-74
2023/05/03 05:19:05;;;;;;;;;;;;;;;;;;4954732;29;19910;-74
2023/05/03 05:21:31;;;;;;;;;;;;;;;;;;4954511;29;19910;-77
2023/05/03 05:23:57;;;;;;;;;;;;;;;;;;4954153;29;19918;-76
2023/05/03 05:26:23;;;;;;;;;;;;;;;;;;4954780;29;19946;-74
2023/05/03 05:28:49;;;;;;;;;;;;;;;;;;4953944;29;19907;-73
2023/05/03 05:31:15;;;;;;;;;;;;;;;;;;4951235;29;19997;-73
2023/05/03 05:33:41;;;;;;;;;;;;;;;;;;4952135;29;19973;-73
2023/05/03 05:36:07;;;;;;;;;;;;;;;;;;4954499;29;19953;-74
2023/05/03 05:38:33;;;;;;;;;;;;;;;;;;4935760;29;19915;-74
2023/05/03 05:40:59;;;;;;;;;;;;;;;;;;4954193;29;19910;-75
2023/05/03 05:43:25;;;;;;;;;;;;;;;;;;4953862;29;19914;-75
2023/05/03 05:45:51;;;;;;;;;;;;;;;;;;4954059;29;19906;-73
2023/05/03 05:48:16;;;;;;;;;;;;;;;;;;4953517;28;20340;-74
2023/05/03 05:50:42;;;;;;;;;;;;;;;;;;4953450;29;19918;-76
2023/05/03 05:53:08;;;;;;;;;;;;;;;;;;4952823;29;19937;-77
2023/05/03 05:55:34;;;;;;;;;;;;;;;;;;4949281;29;19914;-74
2023/05/03 05:58:00;;;;;;;;;;;;;;;;;;4954208;29;19910;-74
2023/05/03 06:00:26;;;;;;;;;;;;;;;;;;4954204;29;19961;-73
2023/05/03 06:02:52;;;;;;;;;;;;;;;;;;4952864;29;19914;-74
2023/05/03 06:05:18;;;;;;;;;;;;;;;;;;4962333;28;20004;-73
2023/05/03 06:07:44;;;;;;;;;;;;;;;;;;4953854;29;19913;-73
2023/05/03 06:10:10;;;;;;;;;;;;;;;;;;4962383;28;19906;-74
2023/05/03 06:12:36;;;;;;;;;;;;;;;;;;4953563;29;19910;-74
2023/05/03 06:15:02;;;;;;;;;;;;;;;;;;4954500;29;19918;-74
2023/05/03 06:17:28;;;;;;;;;;;;;;;;;;4953182;29;19914;-76
2023/05/03 06:19:54;;;;;;;;;;;;;;;;;;4954181;29;19912;-74
2023/05/03 06:22:19;;;;;;;;;;;;;;;;;;4960813;28;19918;-73
2023/05/03 06:24:45;;;;;;;;;;;;;;;;;;4953133;28;20027;-73
2023/05/03 06:27:11;;;;;;;;;;;;;;;;;;4952376;29;19919;-73
2023/05/03 06:29:37;;;;;;;;;;;;;;;;;;4953800;29;19910;-73
2023/05/03 06:32:03;;;;;;;;;;;;;;;;;;4951115;29;20001;-75
2023/05/03 06:34:29;;;;;;;;;;;;;;;;;;4952100;29;20348;-75
2023/05/03 06:36:55;;;;;;;;;;;;;;;;;;4952618;29;20012;-73
2023/05/03 06:39:21;;;;;;;;;;;;;;;;;;4949002;28;19981;-76
2023/05/03 06:41:47;;;;;;;;;;;;;;;;;;4952654;29;19930;-74
2023/05/03 06:44:13;;;;;;;;;;;;;;;;;;4953932;29;19968;-75
2023/05/03 06:46:39;;;;;;;;;;;;;;;;;;4953179;29;20375;-74
2023/05/03 06:49:04;;;;;;;;;;;;;;;;;;4954187;29;20038;-75
2023/05/03 06:51:31;;;;;;;;;;;;;;;;;;4954194;29;19949;-77
2023/05/03 06:54:00;;;;;;;;;;;;;;;;;;4955437;29;19941;-74
2023/05/03 06:56:27;;;;;;;;;;;;;;;;;;4956560;28;19917;-76
2023/05/03 06:58:53;;;;;;;;;;;;;;;;;;4954178;28;20065;-73
2023/05/03 07:01:19;;;;;;;;;;;11.60;99.90;;;;;;4951093;28;19997;-74
2023/05/03 07:03:45;;;;;;;;;;;11.60;99.90;;;;;;4952095;29;19925;-74
2023/05/03 07:06:10;;;;;;;;;;;11.60;99.90;;;;;;4953573;29;19910;-74
2023/05/03 07:08:36;;;;;;;;;;;11.60;99.90;;;;;;4951919;29;19911;-74
2023/05/03 07:11:03;;;;;;;;;;;11.80;99.90;;;;;;4950350;28;19921;-75
2023/05/03 07:13:28;;;;;;;;;;;11.80;99.90;;;;;;4951239;28;19969;-76
2023/05/03 07:15:54;;;;;;;;;;;11.80;99.90;;;;;;4954717;29;20383;-75
2023/05/03 07:18:19;;;;;;;;;;;11.90;99.90;;;;;;4943031;29;20299;-75
2023/05/03 07:20:45;;;;;;;;;;;12.00;99.90;;;;;;4947080;29;19962;-74
2023/05/03 07:23:10;;;;;;;;;;;12.00;99.90;;;;;;4934566;29;19918;-74
2023/05/03 07:25:38;;;;;;;;;;;12.20;99.90;;;;;;4940777;29;20021;-73
2023/05/03 07:28:03;;;;;;;;;;;12.20;99.90;;;;;;4950618;29;20319;-73
2023/05/03 07:30:29;;;;;;;;;;;12.40;99.90;;;;;;4947999;28;19914;-77
2023/05/03 07:32:54;;;;;;;;;;;12.40;99.90;;;;;;4950188;29;20012;-74
2023/05/03 07:35:22;;;;;;;;;;;12.50;99.90;;;;;;4952134;29;19915;-74
2023/05/03 07:37:47;;;;;;;;;;;12.40;99.90;;;;;;4950518;29;20623;-73
2023/05/03 07:40:13;;;;;;;;;;;12.40;99.90;;;;;;4951483;29;20027;-74
2023/05/03 07:42:38;;;;;;;;;;;12.30;99.90;;;;;;4950959;29;20352;-75
2023/05/03 07:45:04;;;;;;;;;;;12.20;99.90;;;;;;4949986;28;19915;-75
2023/05/03 07:47:31;;;;;;;;;;;12.10;99.90;;;;;;4949913;28;19914;-77
2023/05/03 07:49:57;;;;;;;;;;;12.10;99.90;;;;;;4952351;29;19918;-75
2023/05/03 07:52:22;;;;;;;;;;;12.20;99.90;;;;;;4951690;29;20013;-74
2023/05/03 07:54:48;;;;;;;;;;;12.20;99.90;;;;;;4950378;29;20424;-75
2023/05/03 07:57:15;;;;;;;;;;;12.30;99.90;;;;;;4951316;29;20267;-73
2023/05/03 07:59:41;;;;;;;;;;;12.50;99.90;;;;;;4950545;29;19914;-74
2023/05/03 08:02:06;;;;;;;;;;;12.60;99.90;;;;;;4946322;28;19921;-74
2023/05/03 08:04:32;;;;;;;;;;;12.80;99.90;;;;;;4951299;29;19918;-75
2023/05/03 08:06:58;;;;;;;;;;;;;;;;;;4952100;29;19906;-75
2023/05/03 08:09:23;;;;;;;;;;;;;;;;;;4952657;29;19997;-73
2023/05/03 08:11:49;;;;;;;;;;;;;;;;;;4950416;28;20700;-73
2023/05/03 08:14:15;;;;;;;;;;;;;;;;;;4955504;29;19910;-73
2023/05/03 08:16:41;;;;;;;;;;;;;;;;;;4954811;29;20311;-73
2023/05/03 08:19:07;;;;;;;;;;;;;;;;;;4951260;28;19914;-74
2023/05/03 08:21:34;;;;;;;;;;;;;;;;;;4955134;29;19954;-76
2023/05/03 08:24:00;;;;;;;;;;;;;;;;;;4955653;29;20347;-76
2023/05/03 08:26:27;;;;;;;;;;;;;;;;;;4956032;29;19906;-75
2023/05/03 08:28:53;;;;;;;;;;;;;;;;;;4953632;29;19918;-73
2023/05/03 08:31:19;;;;;;;;;;;;;;;;;;4940962;29;19914;-73
2023/05/03 08:33:45;;;;;;;;;;;;;;;;;;4946611;29;19957;-74
2023/05/03 08:36:11;;;;;;;;;;;;;;;;;;4949494;28;19962;-74
2023/05/03 08:38:40;;;;;;;;;;;;;;;;;;4948273;28;19976;-73
2023/05/03 08:41:06;;;;;;;;;;;;;;;;;;4948285;29;20312;-74
2023/05/03 08:43:32;;;;;;;;;;;;;;;;;;4947787;29;20020;-76
2023/05/03 08:45:57;;;;;;;;;;;;;;;;;;4950969;29;19969;-74
2023/05/03 08:48:23;;;;;;;;;;;;;;;;;;4948397;29;19948;-73
2023/05/03 08:50:50;;;;;;;;;;;;;;;;;;4947181;29;19907;-73
2023/05/03 08:53:16;;;;;;;;;;;;;;;;;;4948646;28;20016;-73
2023/05/03 08:55:43;;;;;;;;;;;;;;;;;;4948209;29;19926;-73
2023/05/03 08:58:11;;;;;;;;;;;;;;;;;;4954900;29;19910;-73
2023/05/03 09:00:37;;;;;;;;;;;15.10;99.90;;;;;;4954653;29;19921;-74
2023/05/03 09:03:03;;;;;;;;;;;14.90;99.90;;;;;;4954949;29;19910;-74
2023/05/03 09:05:32;;;;;;;;;;;15.00;99.90;;;;;;4954585;28;20268;-76
2023/05/03 09:08:08;;;;;;;;;;;15.00;99.90;;;;;;4947521;29;19921;-73
2023/05/03 09:10:36;;;;;;;;;;;15.20;99.90;;;;;;4949077;28;19911;-75
2023/05/03 09:13:02;;;;;;;;;;;15.50;99.90;;;;;;4951655;29;19914;-74
2023/05/03 09:15:31;;;;;;;;;;;15.80;99.90;;;;;;4954561;29;20343;-75
2023/05/03 09:18:10;;;;;;;;;;;15.80;99.90;;;;;;4954635;29;19993;-73
2023/05/03 09:20:36;;;;;;;;;;;15.90;99.90;;;;;;4954440;29;19910;-74
2023/05/03 09:23:02;;;;;;;;;;;15.90;99.90;;;;;;4954809;28;19930;-73
2023/05/03 09:25:40;;;;;;;;;;;15.90;99.90;;;;;;4955326;29;20275;-74
2023/05/03 09:28:06;;;;;;;;;;;15.90;99.90;;;;;;4940652;28;20288;-74
2023/05/03 09:30:31;;;;;;;;;;;16.00;99.90;;;;;;4953715;29;19911;-76
2023/05/03 09:32:57;;;;;;;;;;;16.20;99.90;;;;;;4946550;29;19914;-74
2023/05/03 09:35:22;;;;;;;;;;;16.30;99.90;;;;;;4949656;29;19914;-73
2023/05/03 09:37:48;;;;;;;;;;;16.30;99.90;;;;;;4953507;29;19910;-73
2023/05/03 09:40:17;;;;;;;;;;;16.30;99.90;;;;;;4954266;29;19918;-74
2023/05/03 09:43:01;;;;;;;;;;;16.40;99.90;;;;;;4953352;29;19910;-73
2023/05/03 09:45:26;;;;;;;;;;;16.60;99.90;;;;;;4948140;28;19914;-74
2023/05/03 09:47:54;;;;;;;;;;;16.80;99.90;;;;;;4953151;29;19961;-76
2023/05/03 09:50:20;;;;;;;;;;;16.90;99.90;;;;;;4954619;29;19946;-73
2023/05/03 09:52:47;;;;;;;;;;;16.80;99.90;;;;;;4952822;29;20398;-74
2023/05/03 09:55:15;;;;;;;;;;;16.50;99.90;;;;;;4954517;29;19918;-73
2023/05/03 09:57:41;;;;;;;;;;;16.60;99.90;;;;;;4953173;29;19910;-74
2023/05/03 10:00:09;;;;;;;;;;;16.70;99.90;;;;;;4954590;29;20633;-74
2023/05/03 10:02:35;;;;;;;;;;;16.70;99.90;;;;;;4946790;28;20383;-73
2023/05/03 10:05:00;;;;;;;;;;;16.90;99.90;;;;;;4941824;28;19919;-73
2023/05/03 10:07:27;;;;;;;;;;;17.20;99.90;;;;;;4944195;29;19906;-73
2023/05/03 10:09:55;;;;;;;;;;;17.30;99.90;;;;;;4927642;29;19921;-74
2023/05/03 10:12:21;;;;;;;;;;;17.70;99.90;;;;;;4944009;29;19910;-74
2023/05/03 10:14:47;;;;;;;;;;;18.10;99.90;;;;;;4937983;28;19927;-74
2023/05/03 10:17:13;;;;;;;;;;;;;;;;;;4953209;29;19907;-74
2023/05/03 10:19:44;;;;;;;;;;;18.60;99.90;;;;;;4943965;28;20237;-76
2023/05/03 10:22:10;;;;;;;;;;;19.00;99.90;;;;;;4945567;29;19949;-72
2023/05/03 10:24:36;;;;;;;;;;;19.30;99.90;;;;;;4945173;29;19934;-73
2023/05/03 10:27:05;;;;;;;;;;;18.90;99.90;;;;;;4941110;29;19910;-75
2023/05/03 10:29:44;;;;;;;;;;;18.50;99.90;;;;;;4940552;29;20044;-76
2023/05/03 10:32:28;;;;;;;;;;;18.10;99.90;;;;;;4945371;29;20287;-73
2023/05/03 10:35:02;;;;;;;;;;;17.80;99.90;;;;;;4947098;29;19915;-73
2023/05/03 10:37:27;;;;;;;;;;;17.70;99.90;;;;;;4947179;28;19921;-76
2023/05/03 10:39:53;;;;;;;;;;;17.80;99.90;;;;;;4935540;29;19910;-75
2023/05/03 10:42:20;;;;;;;;;;;17.90;99.90;;;;;;4952162;29;19907;-76
2023/05/03 10:44:53;;;;;;;;;;;18.00;99.90;;;;;;4944774;29;20368;-74
2023/05/03 10:47:21;;;;;;;;;;;17.80;99.90;;;;;;4952506;29;19910;-74
2023/05/03 10:49:46;;;;;;;;;;;17.50;99.90;;;;;;4951807;29;19915;-74
2023/05/03 10:52:30;;;;;;;;;;;17.60;99.90;;;;;;4952355;29;20270;-74
2023/05/03 10:54:56;;;;;;;;;;;18.00;99.90;;;;;;4951225;28;19924;-75
2023/05/03 10:57:26;;;;;;;;;;;18.50;99.90;;;;;;4952280;29;19993;-75
2023/05/03 10:59:52;;;;;;;;;;;18.90;99.90;;;;;;4952010;29;20005;-74
2023/05/03 11:02:22;;;;;;;;;;;19.10;99.90;;;;;;4950768;29;19965;-75
2023/05/03 11:04:48;;;;;;;;;;;19.30;99.90;;;;;;4950583;29;19922;-73
2023/05/03 11:07:21;;;;;;;;;;;19.20;99.90;;;;;;4949538;29;19917;-73
2023/05/03 11:09:47;;;;;;;;;;;18.90;99.90;;;;;;4945466;29;20287;-74
2023/05/03 11:12:12;;;;;;;;;;;18.30;99.90;;;;;;4946354;28;19925;-74
2023/05/03 11:14:38;;;;;;;;;;;17.80;99.90;;;;;;4953409;29;19914;-74
2023/05/03 11:17:04;;;;;;;;;;;17.60;99.90;;;;;;4953201;29;19918;-78
2023/05/03 11:19:30;;;;;;;;;;;17.50;99.90;;;;;;4952878;29;19947;-77
2023/05/03 11:21:56;;;;;;;;;;;17.80;99.90;;;;;;4952647;29;19940;-78
2023/05/03 11:24:21;;;;;;;;;;;18.30;99.90;;;;;;4953260;29;19964;-77
2023/05/03 11:26:47;;;;;;;;;;;18.90;99.90;;;;;;4945298;28;20000;-78
2023/05/03 11:29:13;;;;;;;;;;;19.40;99.90;;;;;;4949706;28;20370;-75
2023/05/03 11:31:41;;;;;;;;;;;19.50;99.90;;;;;;4942262;29;19918;-75
2023/05/03 11:34:08;;;;;;;;;;;19.30;99.90;;;;;;4947860;29;19919;-86
2023/05/03 11:36:33;;;;;;;;;;;18.90;99.90;;;;;;4951447;29;20279;-80
2023/05/03 11:38:59;;;;;;;;;;;18.60;99.90;;;;;;4946894;29;19911;-80
2023/05/03 11:41:26;;;;;;;;;;;18.40;99.90;;;;;;4949775;29;19953;-76
2023/05/03 11:43:51;;;;;;;;;;;18.40;99.90;;;;;;4948728;28;19910;-75
2023/05/03 11:46:20;;;;;;;;;;;18.80;99.90;;;;;;4946044;28;19922;-75
2023/05/03 11:48:46;;;;;;;;;;;19.30;99.90;;;;;;4950128;29;19910;-77
2023/05/03 11:51:12;;;;;;;;;;;19.80;99.90;;;;;;4947973;29;19973;-75
2023/05/03 11:53:42;;;;;;;;;;;;;;;;;;4949042;29;20244;-76
2023/05/03 11:56:12;;;;;;;;;;;20.90;99.90;;;;;;4950621;29;19914;-75
2023/05/03 11:58:51;;;;;;;;;;;21.60;87.60;;;;;;4950811;28;19918;-77
2023/05/03 12:01:17;;;;;;;;;;;22.10;85.50;;;;;;4947930;28;19918;-75
2023/05/03 12:03:43;;;;;;;;;;;22.40;86.80;;;;;;4951353;28;19925;-74
2023/05/03 12:06:10;;;;;;;;;;;22.40;90.00;;;;;;4955666;29;19910;-73
2023/05/03 12:08:36;;;;;;;;;;;22.20;89.10;;;;;;4954728;29;19918;-75
2023/05/03 12:11:01;;;;;;;;;;;21.60;90.70;;;;;;4955318;29;20278;-76
2023/05/03 12:13:36;;;;;;;;;;;21.10;91.10;;;;;;4950803;29;20360;-76
2023/05/03 12:16:02;;;;;;;;;;;20.80;92.30;;;;;;4954930;29;20396;-76
2023/05/03 12:18:43;;;;;;;;;;;20.60;93.60;;;;;;4957791;28;19911;-77
2023/05/03 12:21:08;;;;;;;;;;;20.50;92.80;;;;;;4948242;29;19916;-74
2023/05/03 12:23:34;;;;;;;;;;;20.70;93.00;;;;;;4954256;29;19911;-74
2023/05/03 12:26:00;;;;;;;;;;;20.40;91.50;;;;;;4955604;29;19970;-75
2023/05/03 12:28:25;;;;;;;;;;;20.20;92.80;;;;;;4955694;29;20008;-76
2023/05/03 12:30:51;;;;;;;;;;;20.40;92.80;;;;;;4954608;29;19910;-77
2023/05/03 12:33:18;;;;;;;;;;;20.40;92.50;;;;;;4955504;29;20005;-74
2023/05/03 12:35:44;;;;;;;;;;;20.50;92.00;;;;;;4950557;28;19953;-75
2023/05/03 12:38:09;;;;;;;;;;;21.00;91.90;;;;;;4955389;29;20347;-74
2023/05/03 12:40:35;;;;;;;;;;;21.60;90.20;;;;;;4955415;29;19962;-75
2023/05/03 12:43:00;;;;;;;;;;;22.00;87.90;;;;;;4955630;29;19914;-76
2023/05/03 12:45:27;;;;;;;;;;;22.50;83.60;;;;;;4955519;29;19914;-75
2023/05/03 12:47:53;;;;;;;;;;;22.90;81.20;;;;;;4954708;29;20009;-75
2023/05/03 12:50:19;;;;;;;;;;;23.40;74.90;;;;;;4955918;29;20009;-74
2023/05/03 12:52:44;;;;;;;;;;;23.60;75.10;;;;;;4950256;28;19921;-74
2023/05/03 12:55:10;;;;;;;;;;;23.60;79.70;;;;;;4955933;29;19937;-74
2023/05/03 12:57:36;;;;;;;;;;;23.50;80.50;;;;;;4946903;29;19911;-75
2023/05/03 13:00:02;;;;;;;;;;;23.60;80.70;;;;;;4935712;29;20253;-77
2023/05/03 13:02:27;;;;;;;;;;;23.80;80.10;;;;;;4937187;29;20026;-82
2023/05/03 13:04:56;;;;;;;;;;;23.80;78.90;;;;;;4948570;29;20360;-77
2023/05/03 13:07:23;;;;;;;;;;;23.60;79.80;;;;;;4956127;29;19907;-76
2023/05/03 13:09:49;;;;;;;;;;;23.10;80.70;;;;;;4950177;28;20245;-76
2023/05/03 13:12:19;;;;;;;;;;;22.60;81.10;;;;;;4955617;29;20012;-77
2023/05/03 13:14:45;;;;;;;;;;;22.40;82.10;;;;;;4955957;29;19916;-77
2023/05/03 13:17:12;;;;;;;;;;;22.40;80.50;;;;;;4956842;29;19906;-76
2023/05/03 13:19:37;;;;;;;;;;;22.50;79.10;;;;;;4945470;28;19953;-76
2023/05/03 13:22:03;;;;;;;;;;;22.90;77.80;;;;;;4955959;29;19942;-77
2023/05/03 13:24:28;;;;;;;;;;;23.20;75.40;;;;;;4943763;29;19910;-76
2023/05/03 13:26:54;;;;;;;;;;;23.50;73.40;;;;;;4942852;29;20009;-76
2023/05/03 13:29:20;;;;;;;;;;;23.60;73.50;;;;;;4951571;28;19916;-77
2023/05/03 13:31:46;;;;;;;;;;;23.60;73.20;;;;;;4950024;29;20361;-77
2023/05/03 13:34:12;;;;;;;;;;;24.00;72.00;;;;;;4946342;29;19915;-75
2023/05/03 13:36:37;;;;;;;;;;;24.30;70.10;;;;;;4935700;29;19917;-75
2023/05/03 13:39:03;;;;;;;;;;;24.10;66.90;;;;;;4936323;29;19907;-76
2023/05/03 13:41:28;;;;;;;;;;;23.70;68.30;;;;;;4936099;29;20249;-76
2023/05/03 13:43:54;;;;;;;;;;;23.10;69.00;;;;;;4918933;28;19918;-77
2023/05/03 13:46:19;;;;;;;;;;;22.50;70.50;;;;;;4967715;28;20318;-77
2023/05/03 13:48:45;;;;;;;;;;;21.90;71.10;;;;;;4973204;28;20342;-75
2023/05/03 13:51:11;;;;;;;;;;;21.10;71.40;;;;;;4973772;28;20347;-76
2023/05/03 13:53:37;;;;;;;;;;;20.50;73.10;;;;;;4973015;28;19921;-77
2023/05/03 13:56:03;;;;;;;;;;;20.20;74.00;;;;;;4974269;28;20008;-76
2023/05/03 13:58:28;;;;;;;;;;;20.30;74.50;;;;;;4972630;28;20053;-77
2023/05/03 14:00:54;;;;;;;;;;;20.90;73.00;;;;;;4956507;28;19906;-73
2023/05/03 14:03:20;;;;;;;;;;;21.50;71.10;;;;;;4950952;28;20360;-73
2023/05/03 14:05:46;;;;;;;;;;;21.90;71.20;;;;;;4952726;29;19917;-75
2023/05/03 14:08:11;;;;;;;;;;;22.40;71.30;;;;;;4954109;29;20284;-76
2023/05/03 14:10:38;;;;;;;;;;;22.70;71.10;;;;;;4947645;28;19957;-76
2023/05/03 14:13:04;;;;;;;;;;;23.10;69.60;;;;;;4954231;29;19917;-74
2023/05/03 14:15:29;;;;;;;;;;;23.40;69.80;;;;;;4954253;29;20275;-76
2023/05/03 14:17:55;;;;;;;;;;;23.80;68.40;;;;;;4954034;29;19910;-76
2023/05/03 14:20:20;;;;;;;;;;;24.10;67.00;;;;;;4953820;29;19906;-75
2023/05/03 14:22:46;;;;;;;;;;;24.30;66.40;;;;;;4953519;29;19947;-75
2023/05/03 14:25:11;;;;;;;;;;;24.50;64.90;;;;;;4955370;29;19906;-76
2023/05/03 14:27:37;;;;;;;;;;;24.60;63.40;;;;;;4933550;29;19941;-75
2023/05/03 14:30:03;;;;;;;;;;;;;;;;;;4954169;29;19920;-75
2023/05/03 14:32:29;;;;;;;;;;;24.90;62.30;;;;;;4953287;29;19917;-76
2023/05/03 14:34:55;;;;;;;;;;;24.70;62.60;;;;;;4952996;29;19915;-81
2023/05/03 14:37:20;;;;;;;;;;;24.10;62.20;;;;;;4953669;29;19953;-79
2023/05/03 14:39:46;;;;;;;;;;;24.00;63.10;;;;;;4955271;29;19910;-79
2023/05/03 14:42:11;;;;;;;;;;;24.00;63.00;;;;;;4954251;29;19994;-84
2023/05/03 14:44:37;;;;;;;;;;;24.20;62.50;;;;;;4949962;28;19942;-76
2023/05/03 14:47:03;;;;;;;;;;;24.30;63.30;;;;;;4972821;28;19906;-77
2023/05/03 14:49:29;;;;;;;;;;;24.50;65.20;;;;;;4972843;28;20271;-79
2023/05/03 14:51:55;;;;;;;;;;;24.60;64.30;;;;;;4971950;28;19910;-75
2023/05/03 14:54:22;;;;;;;;;;;24.60;63.80;;;;;;4973359;28;20004;-78
2023/05/03 14:56:48;;;;;;;;;;;24.10;63.10;;;;;;4960052;28;19918;-81
2023/05/03 14:59:13;;;;;;;;;;;23.60;62.40;;;;;;4935282;29;19962;-77
2023/05/03 15:01:39;;;;;;;;;;;23.40;63.50;;;;;;4945574;28;19979;-80
2023/05/03 15:04:06;;;;;;;;;;;23.50;64.60;;;;;;4954053;29;19918;-79